createdAt,value
2018-04-29T00:00:22.489Z,26.60
2018-04-29T00:02:48.565Z,26.30
2018-04-29T00:05:14.640Z,25.10
2018-04-29T00:07:40.788Z,25.93
2018-04-29T00:10:07.061Z,26.00
2018-04-29T00:12:33.088Z,25.03
2018-04-29T00:14:59.121Z,27.90
2018-04-29T00:17:25.178Z,26.57
2018-04-29T00:19:51.204Z,26.30
2018-04-29T00:22:17.601Z,27.77
2018-04-29T00:24:43.657Z,27.57
2018-04-29T00:27:09.693Z,25.57
2018-04-29T00:29:35.849Z,26.83
2018-04-29T00:32:01.881Z,28.70
2018-04-29T00:34:28.340Z,26.13
2018-04-29T00:36:54.384Z,26.07
2018-04-29T00:39:20.391Z,26.03
2018-04-29T00:41:46.441Z,27.67
2018-04-29T00:44:12.465Z,26.80
2018-04-29T00:46:38.501Z,27.63
2018-04-29T00:49:04.587Z,27.40
2018-04-29T00:51:42.846Z,26.80
2018-04-29T00:54:08.916Z,27.83
2018-04-29T00:56:34.964Z,26.67
2018-04-29T00:59:01.009Z,24.57
2018-04-29T01:01:27.069Z,25.27
2018-04-29T01:03:53.673Z,26.00
2018-04-29T01:06:19.845Z,27.20
2018-04-29T01:08:45.884Z,27.20
2018-04-29T01:11:11.942Z,25.93
2018-04-29T01:13:38.017Z,26.50
2018-04-29T01:16:04.033Z,28.43
2018-04-29T01:18:30.377Z,28.87
2018-04-29T01:20:56.738Z,26.53
2018-04-29T01:23:22.763Z,25.60
2018-04-29T01:25:48.824Z,25.30
2018-04-29T01:28:15.073Z,27.37
2018-04-29T01:30:41.109Z,27.90
2018-04-29T01:33:07.142Z,28.93
2018-04-29T01:35:33.221Z,30.10
2018-04-29T01:37:59.252Z,29.10
2018-04-29T01:40:25.325Z,27.60
2018-04-29T01:42:51.749Z,29.83
2018-04-29T01:45:17.800Z,27.93
2018-04-29T01:47:43.823Z,26.63
2018-04-29T01:50:09.832Z,28.60
2018-04-29T01:52:36.125Z,29.93
2018-04-29T01:55:02.174Z,29.30
2018-04-29T01:57:28.217Z,27.30
2018-04-29T01:59:54.245Z,28.23
2018-04-29T02:02:20.762Z,28.33
2018-04-29T02:04:46.805Z,28.47
2018-04-29T02:07:13.219Z,29.13
2018-04-29T02:09:39.252Z,30.13
2018-04-29T02:12:05.326Z,27.57
2018-04-29T02:14:31.345Z,27.40
2018-04-29T02:16:57.391Z,28.70
2018-04-29T02:19:23.488Z,26.73
2018-04-29T02:21:49.509Z,28.93
2018-04-29T02:24:15.526Z,29.27
2018-04-29T02:26:41.541Z,30.00
2018-04-29T02:29:07.584Z,28.50
2018-04-29T02:31:33.653Z,29.00
2018-04-29T02:34:00.097Z,28.97
2018-04-29T02:36:26.122Z,30.13
2018-04-29T02:38:52.268Z,35.67
2018-04-29T02:41:18.298Z,28.80
2018-04-29T02:43:44.364Z,28.10
2018-04-29T02:46:10.400Z,31.80
2018-04-29T02:48:36.413Z,33.53
2018-04-29T02:51:02.466Z,31.23
2018-04-29T02:53:28.526Z,32.70
2018-04-29T02:55:54.601Z,36.90
2018-04-29T02:58:20.733Z,33.87
2018-04-29T03:00:46.805Z,34.23
2018-04-29T03:03:12.825Z,33.70
2018-04-29T03:05:38.893Z,34.20
2018-04-29T03:08:04.964Z,33.30
2018-04-29T03:10:30.982Z,33.13
2018-04-29T03:12:57.005Z,33.77
2018-04-29T03:15:23.521Z,34.20
2018-04-29T03:17:49.665Z,34.43
2018-04-29T03:20:15.736Z,37.80
2018-04-29T03:22:41.761Z,35.97
2018-04-29T03:25:07.772Z,33.00
2018-04-29T03:27:33.917Z,30.23
2018-04-29T03:30:00.703Z,27.63
2018-04-29T03:32:26.977Z,29.80
2018-04-29T03:34:52.993Z,26.67
2018-04-29T03:37:19.037Z,29.53
2018-04-29T03:39:45.057Z,28.50
2018-04-29T03:42:11.821Z,27.73
2018-04-29T03:44:37.885Z,31.50
2018-04-29T03:47:03.908Z,38.90
2018-04-29T03:49:29.973Z,34.67
2018-04-29T03:51:56.749Z,34.60
2018-04-29T03:54:22.781Z,39.93
2018-04-29T03:56:48.960Z,35.00
2018-04-29T03:59:27.414Z,35.33
2018-04-29T04:02:05.624Z,35.77
2018-04-29T04:04:31.644Z,35.30
2018-04-29T04:06:57.861Z,32.87
2018-04-29T04:09:23.904Z,33.60
2018-04-29T04:11:49.950Z,32.70
2018-04-29T04:14:15.962Z,29.20
2018-04-29T04:16:41.978Z,31.30
2018-04-29T04:19:08.073Z,31.43
2018-04-29T04:21:34.857Z,31.43
2018-04-29T04:24:00.897Z,29.20
2018-04-29T04:26:26.915Z,29.50
2018-04-29T04:28:52.952Z,34.33
2018-04-29T04:31:18.998Z,30.67
2018-04-29T04:33:45.050Z,32.67
2018-04-29T04:36:11.063Z,32.40
2018-04-29T04:38:37.423Z,33.93
2018-04-29T04:41:03.445Z,33.80
2018-04-29T04:43:29.504Z,33.90
2018-04-29T04:45:55.537Z,34.60
2018-04-29T04:48:21.595Z,36.13
2018-04-29T04:50:47.623Z,32.57
2018-04-29T04:53:13.649Z,30.60
2018-04-29T04:55:39.745Z,34.67
2018-04-29T04:58:05.841Z,33.33
2018-04-29T05:00:31.838Z,37.40
2018-04-29T05:02:57.853Z,38.07
2018-04-29T05:05:23.873Z,34.80
2018-04-29T05:07:49.925Z,36.10
2018-04-29T05:10:15.966Z,34.27
2018-04-29T05:12:42.029Z,36.83
2018-04-29T05:15:08.073Z,35.63
2018-04-29T05:17:34.184Z,36.57
2018-04-29T05:20:00.353Z,38.33
2018-04-29T05:22:26.391Z,35.60
2018-04-29T05:24:52.461Z,35.87
2018-04-29T05:27:18.545Z,34.47
2018-04-29T05:29:45.317Z,35.70
2018-04-29T05:32:11.373Z,34.93
2018-04-29T05:34:37.423Z,32.93
2018-04-29T05:37:03.484Z,35.33
2018-04-29T05:39:29.520Z,34.23
2018-04-29T05:41:56.505Z,35.00
2018-04-29T05:44:22.579Z,35.93
2018-04-29T05:46:48.608Z,41.10
2018-04-29T05:49:15.813Z,40.80
2018-04-29T05:51:41.853Z,38.67
2018-04-29T05:54:08.029Z,40.53
2018-04-29T05:56:34.117Z,41.80
2018-04-29T05:59:00.173Z,38.57
2018-04-29T06:01:26.240Z,39.50
2018-04-29T06:03:52.264Z,43.20
2018-04-29T06:06:18.269Z,42.30
2018-04-29T06:08:45.017Z,44.87
2018-04-29T06:11:11.049Z,43.27
2018-04-29T06:13:37.117Z,44.90
2018-04-29T06:16:03.963Z,42.10
2018-04-29T06:18:29.942Z,47.53
2018-04-29T06:20:56.014Z,44.80
2018-04-29T06:23:22.038Z,44.13
2018-04-29T06:25:48.901Z,48.30
2018-04-29T06:28:15.257Z,46.50
2018-04-29T06:30:41.277Z,42.33
2018-04-29T06:33:07.352Z,42.50
2018-04-29T06:35:33.665Z,42.60
2018-04-29T06:37:59.709Z,43.67
2018-04-29T06:40:25.736Z,47.20
2018-04-29T06:42:51.793Z,46.07
2018-04-29T06:45:17.853Z,45.57
2018-04-29T06:47:43.892Z,44.23
2018-04-29T06:50:09.946Z,46.47
2018-04-29T06:52:35.956Z,44.40
2018-04-29T06:55:02.022Z,47.27
2018-04-29T06:57:28.237Z,48.63
2018-04-29T06:59:54.253Z,52.07
2018-04-29T07:02:21.061Z,50.37
2018-04-29T07:04:47.097Z,45.83
2018-04-29T07:07:13.123Z,51.37
2018-04-29T07:09:39.194Z,52.70
2018-04-29T07:12:05.737Z,51.20
2018-04-29T07:14:31.800Z,47.00
2018-04-29T07:16:57.817Z,44.83
2018-04-29T07:19:23.977Z,43.93
2018-04-29T07:21:50.005Z,44.67
2018-04-29T07:24:16.030Z,48.00
2018-04-29T07:26:42.698Z,49.27
2018-04-29T07:29:08.925Z,47.90
2018-04-29T07:31:35.068Z,56.60
2018-04-29T07:34:01.056Z,52.30
2018-04-29T07:36:27.094Z,46.40
2018-04-29T07:38:53.208Z,58.10
2018-04-29T07:41:19.257Z,53.20
2018-04-29T07:43:45.473Z,54.70
2018-04-29T07:46:11.526Z,48.67
2018-04-29T07:48:37.557Z,56.10
2018-04-29T07:51:04.161Z,64.67
2018-04-29T07:53:30.208Z,59.23
2018-04-29T07:55:56.237Z,61.03
2018-04-29T07:58:22.417Z,63.33
2018-04-29T08:00:48.472Z,66.43
2018-04-29T08:03:14.557Z,58.33
2018-04-29T08:05:41.385Z,48.67
2018-04-29T08:08:07.405Z,48.80
2018-04-29T08:10:33.461Z,46.60
2018-04-29T08:12:59.500Z,47.63
2018-04-29T08:15:25.978Z,47.93
2018-04-29T08:17:51.995Z,45.10
2018-04-29T08:20:18.023Z,47.87
2018-04-29T08:22:44.343Z,46.97
2018-04-29T08:25:10.371Z,47.47
2018-04-29T08:27:36.413Z,48.27
2018-04-29T08:30:02.510Z,49.80
2018-04-29T08:32:28.542Z,49.23
2018-04-29T08:34:54.574Z,45.53
2018-04-29T08:37:20.595Z,42.53
2018-04-29T08:39:47.104Z,43.83
2018-04-29T08:42:13.741Z,45.33
2018-04-29T08:44:39.769Z,49.57
2018-04-29T08:47:05.809Z,45.00
2018-04-29T08:49:31.927Z,51.67
2018-04-29T08:51:57.917Z,48.70
2018-04-29T08:54:24.013Z,49.40
2018-04-29T08:56:50.057Z,45.77
2018-04-29T08:59:16.522Z,49.67
2018-04-29T09:01:42.573Z,52.37
2018-04-29T09:04:09.433Z,54.87
2018-04-29T09:06:35.489Z,50.97
2018-04-29T09:09:01.534Z,44.57
2018-04-29T09:11:27.559Z,52.80
2018-04-29T09:13:53.614Z,56.80
2018-04-29T09:16:19.697Z,55.57
2018-04-29T09:18:45.760Z,56.80
2018-04-29T09:21:11.789Z,50.73
2018-04-29T09:23:37.807Z,51.80
2018-04-29T09:26:03.830Z,58.23
2018-04-29T09:28:29.927Z,52.07
2018-04-29T09:30:55.997Z,55.93
2018-04-29T09:33:22.018Z,52.13
2018-04-29T09:35:48.042Z,54.90
2018-04-29T09:38:14.537Z,52.30
2018-04-29T09:40:40.626Z,56.00
2018-04-29T09:43:06.715Z,54.80
2018-04-29T09:45:32.742Z,54.47
2018-04-29T09:47:58.813Z,55.40
2018-04-29T09:50:24.846Z,56.43
2018-04-29T09:52:50.961Z,55.53
2018-04-29T09:55:17.138Z,60.33
2018-04-29T09:57:43.117Z,64.83
2018-04-29T10:00:09.201Z,48.77
2018-04-29T10:02:35.249Z,51.20
2018-04-29T10:05:02.042Z,57.87
2018-04-29T10:07:28.093Z,51.33
2018-04-29T10:09:54.693Z,54.57
2018-04-29T10:12:20.729Z,55.00
2018-04-29T10:14:46.764Z,49.80
2018-04-29T10:17:13.146Z,51.73
2018-04-29T10:19:39.223Z,44.97
2018-04-29T10:22:05.298Z,47.03
2018-04-29T10:24:31.677Z,50.80
2018-04-29T10:26:57.685Z,45.43
2018-04-29T10:29:23.723Z,45.83
2018-04-29T10:31:49.869Z,47.17
2018-04-29T10:34:15.905Z,41.23
2018-04-29T10:36:41.925Z,42.47
2018-04-29T10:39:08.031Z,42.67
2018-04-29T10:41:34.081Z,48.27
2018-04-29T10:44:00.905Z,45.53
2018-04-29T10:46:27.177Z,42.77
2018-04-29T10:48:53.254Z,43.03
2018-04-29T10:51:19.761Z,47.97
2018-04-29T10:53:45.813Z,42.93
2018-04-29T10:56:11.889Z,41.67
2018-04-29T10:58:37.919Z,41.63
2018-04-29T11:01:03.961Z,41.47
2018-04-29T11:03:30.021Z,41.43
2018-04-29T11:05:56.250Z,39.23
2018-04-29T11:08:22.379Z,38.20
2018-04-29T11:10:48.409Z,37.77
2018-04-29T11:13:14.458Z,35.07
2018-04-29T11:15:40.469Z,38.97
2018-04-29T11:18:07.272Z,37.93
2018-04-29T11:20:33.390Z,35.33
2018-04-29T11:22:59.396Z,34.93
2018-04-29T11:25:25.541Z,32.90
2018-04-29T11:27:51.596Z,31.73
2018-04-29T11:30:18.198Z,34.20
2018-04-29T11:32:44.354Z,26.03
2018-04-29T11:35:10.389Z,29.67
2018-04-29T11:37:36.464Z,28.57
2018-04-29T11:40:02.537Z,29.73
2018-04-29T11:42:28.917Z,28.00
2018-04-29T11:44:54.973Z,28.07
2018-04-29T11:47:21.000Z,27.50
2018-04-29T11:49:47.131Z,26.53
2018-04-29T11:52:13.174Z,27.07
2018-04-29T11:54:39.221Z,27.17
2018-04-29T11:57:05.325Z,25.53
2018-04-29T11:59:31.361Z,25.67
2018-04-29T12:01:58.221Z,25.57
2018-04-29T12:04:24.161Z,25.87
2018-04-29T12:06:50.411Z,25.07
2018-04-29T12:09:16.561Z,25.10
2018-04-29T12:11:42.569Z,24.80
2018-04-29T12:14:09.085Z,23.47
2018-04-29T12:16:35.105Z,24.70
2018-04-29T12:19:01.136Z,23.83
2018-04-29T12:21:27.303Z,25.97
2018-04-29T12:23:53.357Z,24.03
2018-04-29T12:26:19.379Z,24.87
2018-04-29T12:28:45.576Z,25.30
2018-04-29T12:31:11.677Z,23.83
2018-04-29T12:33:37.772Z,24.80
2018-04-29T12:36:04.826Z,25.07
2018-04-29T12:38:31.365Z,25.77
2018-04-29T12:40:57.433Z,26.43
2018-04-29T12:43:23.512Z,24.27
2018-04-29T12:45:49.558Z,25.03
2018-04-29T12:48:15.597Z,25.10
2018-04-29T12:50:42.758Z,24.90
2018-04-29T12:53:09.152Z,25.30
2018-04-29T12:55:35.365Z,25.30
2018-04-29T12:58:01.425Z,24.57
2018-04-29T13:00:27.454Z,25.40
2018-04-29T13:02:54.474Z,25.93
2018-04-29T13:05:20.489Z,25.60
2018-04-29T13:07:46.573Z,25.63
2018-04-29T13:10:12.618Z,26.07
2018-04-29T13:12:38.716Z,25.43
2018-04-29T13:15:04.749Z,25.97
2018-04-29T13:17:30.764Z,25.47
2018-04-29T13:19:56.837Z,23.83
2018-04-29T13:22:23.069Z,24.83
2018-04-29T13:24:49.097Z,25.10
2018-04-29T13:27:15.130Z,22.37
2018-04-29T13:29:41.447Z,24.17
2018-04-29T13:32:07.428Z,24.43
2018-04-29T13:34:33.491Z,23.80
2018-04-29T13:36:59.515Z,24.27
2018-04-29T13:39:25.580Z,23.73
2018-04-29T13:41:51.633Z,24.70
2018-04-29T13:44:17.729Z,25.33
2018-04-29T13:46:43.746Z,24.60
2018-04-29T13:49:09.773Z,23.80
2018-04-29T13:51:35.833Z,23.73
2018-04-29T13:54:02.961Z,23.53
2018-04-29T13:56:29.052Z,23.97
2018-04-29T13:58:55.068Z,24.37
2018-04-29T14:01:21.225Z,24.70
2018-04-29T14:03:47.358Z,24.33
2018-04-29T14:06:13.416Z,23.93
2018-04-29T14:08:39.441Z,24.17
2018-04-29T14:11:06.213Z,23.73
2018-04-29T14:13:33.055Z,23.77
2018-04-29T14:15:59.933Z,24.37
2018-04-29T14:18:25.940Z,25.60
2018-04-29T14:20:51.969Z,26.73
2018-04-29T14:23:17.998Z,25.67
2018-04-29T14:25:44.023Z,26.27
2018-04-29T14:28:10.361Z,25.70
2018-04-29T14:30:36.479Z,25.67
2018-04-29T14:33:02.590Z,26.33
2018-04-29T14:35:28.613Z,26.53
2018-04-29T14:37:54.637Z,25.63
2018-04-29T14:40:20.661Z,26.37
2018-04-29T14:42:47.020Z,25.40
2018-04-29T14:45:13.056Z,26.43
2018-04-29T14:47:39.081Z,26.73
2018-04-29T14:50:05.146Z,25.67
2018-04-29T14:52:31.183Z,26.47
2018-04-29T14:54:57.218Z,25.87
2018-04-29T14:57:23.261Z,26.23
2018-04-29T14:59:49.337Z,26.97
2018-04-29T15:02:15.374Z,26.17
2018-04-29T15:04:41.421Z,25.73
2018-04-29T15:07:07.465Z,25.83
2018-04-29T15:09:33.541Z,27.57
2018-04-29T15:11:59.565Z,28.03
2018-04-29T15:14:26.439Z,26.97
2018-04-29T15:16:52.604Z,26.93
2018-04-29T15:19:19.358Z,26.43
2018-04-29T15:21:45.428Z,27.73
2018-04-29T15:24:11.489Z,27.00
2018-04-29T15:26:37.554Z,26.87
2018-04-29T15:29:03.609Z,26.73
2018-04-29T15:31:29.620Z,27.60
2018-04-29T15:33:55.726Z,26.10
2018-04-29T15:36:21.758Z,28.03
2018-04-29T15:38:47.841Z,27.87
2018-04-29T15:41:14.625Z,26.53
2018-04-29T15:43:40.672Z,26.70
2018-04-29T15:46:06.866Z,26.87
2018-04-29T15:48:32.911Z,26.77
2018-04-29T15:50:58.964Z,27.00
2018-04-29T15:53:24.981Z,28.27
2018-04-29T15:55:51.269Z,27.17
2018-04-29T15:58:17.320Z,28.87
2018-04-29T16:00:43.378Z,28.77
2018-04-29T16:03:09.399Z,28.03
2018-04-29T16:05:35.425Z,28.87
2018-04-29T16:08:01.532Z,29.40
2018-04-29T16:10:27.616Z,28.87
2018-04-29T16:12:53.701Z,28.67
2018-04-29T16:15:19.749Z,30.47
2018-04-29T16:17:45.789Z,30.90
2018-04-29T16:20:11.826Z,31.23
2018-04-29T16:22:37.917Z,31.40
2018-04-29T16:25:05.729Z,31.13
2018-04-29T16:27:31.761Z,31.87
2018-04-29T16:29:57.769Z,32.00
2018-04-29T16:32:23.786Z,29.60
2018-04-29T16:34:49.944Z,31.07
2018-04-29T16:37:15.961Z,32.17
2018-04-29T16:39:42.034Z,34.00
2018-04-29T16:42:08.081Z,33.50
2018-04-29T16:44:34.113Z,33.20
2018-04-29T16:47:00.218Z,34.00
2018-04-29T16:49:26.773Z,34.57
2018-04-29T16:51:52.794Z,32.90
2018-04-29T16:54:18.845Z,35.57
2018-04-29T16:56:44.881Z,34.57
2018-04-29T16:59:11.149Z,35.67
2018-04-29T17:01:37.193Z,35.77
2018-04-29T17:04:03.252Z,36.57
2018-04-29T17:06:29.273Z,36.70
2018-04-29T17:08:55.288Z,36.00
2018-04-29T17:11:21.361Z,37.90
2018-04-29T17:13:47.416Z,37.07
2018-04-29T17:16:14.060Z,37.53
2018-04-29T17:18:40.298Z,35.73
2018-04-29T17:21:06.304Z,37.03
2018-04-29T17:23:32.362Z,36.00
2018-04-29T17:25:58.468Z,39.33
2018-04-29T17:28:24.528Z,37.53
2018-04-29T17:30:50.536Z,38.73
2018-04-29T17:33:16.585Z,36.63
2018-04-29T17:35:42.681Z,37.27
2018-04-29T17:38:08.722Z,37.27
2018-04-29T17:40:34.741Z,39.60
2018-04-29T17:43:00.886Z,36.53
2018-04-29T17:45:27.581Z,38.50
2018-04-29T17:47:53.641Z,35.63
2018-04-29T17:50:19.820Z,38.53
2018-04-29T17:52:45.857Z,38.47
2018-04-29T17:55:11.908Z,37.33
2018-04-29T17:57:37.914Z,36.60
2018-04-29T18:00:04.010Z,38.73
2018-04-29T18:02:30.066Z,41.10
2018-04-29T18:04:56.077Z,39.00
2018-04-29T18:07:22.187Z,39.13
2018-04-29T18:09:48.193Z,37.83
2018-04-29T18:12:14.226Z,38.27
2018-04-29T18:14:40.280Z,37.83
2018-04-29T18:17:06.617Z,40.90
2018-04-29T18:19:32.562Z,38.50
2018-04-29T18:21:58.619Z,38.60
2018-04-29T18:24:24.637Z,38.33
2018-04-29T18:26:50.705Z,39.60
2018-04-29T18:29:16.741Z,39.50
2018-04-29T18:31:42.785Z,40.00
2018-04-29T18:34:08.826Z,41.47
2018-04-29T18:36:34.983Z,41.27
2018-04-29T18:39:01.070Z,40.33
2018-04-29T18:41:27.402Z,41.20
2018-04-29T18:43:53.557Z,41.17
2018-04-29T18:46:19.669Z,39.63
2018-04-29T18:48:45.718Z,43.47
2018-04-29T18:51:11.819Z,45.03
2018-04-29T18:53:37.797Z,43.93
2018-04-29T18:56:04.042Z,41.33
2018-04-29T18:58:30.077Z,45.47
2018-04-29T19:00:56.165Z,46.63
2018-04-29T19:03:22.485Z,46.03
2018-04-29T19:05:48.528Z,46.30
2018-04-29T19:08:14.556Z,44.17
2018-04-29T19:10:40.574Z,45.53
2018-04-29T19:13:06.630Z,46.40
2018-04-29T19:15:32.653Z,49.53
2018-04-29T19:17:59.344Z,50.73
2018-04-29T19:20:25.928Z,48.30
2018-04-29T19:22:51.942Z,48.60
2018-04-29T19:25:18.181Z,56.80
2018-04-29T19:27:44.230Z,45.73
2018-04-29T19:30:10.317Z,54.23
2018-04-29T19:32:36.326Z,50.80
2018-04-29T19:35:02.358Z,49.80
2018-04-29T19:37:28.453Z,56.67
2018-04-29T19:39:54.501Z,55.20
2018-04-29T19:42:20.546Z,51.43
2018-04-29T19:44:46.637Z,48.60
2018-04-29T19:47:12.658Z,52.00
2018-04-29T19:49:38.901Z,52.37
2018-04-29T19:52:04.885Z,50.83
2018-04-29T19:54:30.905Z,55.87
2018-04-29T19:56:56.937Z,60.50
2018-04-29T19:59:23.102Z,55.47
2018-04-29T20:01:49.104Z,47.93
2018-04-29T20:04:15.125Z,52.37
2018-04-29T20:06:41.469Z,54.37
2018-04-29T20:09:07.545Z,44.27
2018-04-29T20:11:33.719Z,52.27
2018-04-29T20:14:00.153Z,55.80
2018-04-29T20:16:26.225Z,57.53
2018-04-29T20:18:52.241Z,54.80
2018-04-29T20:21:18.329Z,63.72
2018-04-29T20:23:44.355Z,49.90
2018-04-29T20:26:10.377Z,39.33
2018-04-29T20:28:36.407Z,26.53
2018-04-29T20:31:02.439Z,26.93
2018-04-29T20:33:28.512Z,24.07
2018-04-29T20:35:54.562Z,20.63
2018-04-29T20:38:20.645Z,30.57
2018-04-29T20:40:46.829Z,34.60
2018-04-29T20:43:12.882Z,41.67
2018-04-29T20:45:38.949Z,45.50
2018-04-29T20:48:06.132Z,49.07
2018-04-29T20:50:32.358Z,44.33
2018-04-29T20:52:58.369Z,47.23
2018-04-29T20:55:24.457Z,45.20
2018-04-29T20:57:50.477Z,50.53
2018-04-29T21:00:16.838Z,44.57
2018-04-29T21:02:42.886Z,48.83
2018-04-29T21:05:08.910Z,43.17
2018-04-29T21:07:34.945Z,29.17
2018-04-29T21:10:01.421Z,38.53
2018-04-29T21:12:27.473Z,40.40
2018-04-29T21:14:53.565Z,35.20
2018-04-29T21:17:19.635Z,35.43
2018-04-29T21:19:45.841Z,28.87
2018-04-29T21:22:11.905Z,29.00
2018-04-29T21:24:38.337Z,33.97
2018-04-29T21:27:04.354Z,33.30
2018-04-29T21:29:30.384Z,25.77
2018-04-29T21:31:56.441Z,30.93
2018-04-29T21:34:22.548Z,29.73
2018-04-29T21:36:48.618Z,31.97
2018-04-29T21:39:14.673Z,30.37
2018-04-29T21:41:40.710Z,34.40
2018-04-29T21:44:06.751Z,34.33
2018-04-29T21:46:32.822Z,35.57
2018-04-29T21:48:59.169Z,37.50
2018-04-29T21:51:25.233Z,40.97
2018-04-29T21:53:51.250Z,43.40
2018-04-29T21:56:17.333Z,44.30
2018-04-29T21:58:43.371Z,43.67
2018-04-29T22:01:09.429Z,44.17
2018-04-29T22:03:35.936Z,49.93
2018-04-29T22:06:01.975Z,52.77
2018-04-29T22:08:27.997Z,53.53
2018-04-29T22:10:54.042Z,53.37
2018-04-29T22:13:20.681Z,50.90
2018-04-29T22:15:46.754Z,54.43
2018-04-29T22:18:13.325Z,58.47
2018-04-29T22:20:39.337Z,44.03
2018-04-29T22:23:05.461Z,45.33
2018-04-29T22:25:31.529Z,57.80
2018-04-29T22:27:57.808Z,56.40
2018-04-29T22:30:24.251Z,51.03
2018-04-29T22:32:50.397Z,51.33
2018-04-29T22:35:16.427Z,54.97
2018-04-29T22:37:42.593Z,51.10
2018-04-29T22:40:08.601Z,55.67
2018-04-29T22:42:35.241Z,53.87
2018-04-29T22:45:01.277Z,59.37
2018-04-29T22:47:27.305Z,55.73
2018-04-29T22:49:54.176Z,46.37
2018-04-29T22:52:20.205Z,60.90
2018-04-29T22:54:46.245Z,47.23
2018-04-29T22:57:12.397Z,57.63
2018-04-29T22:59:38.459Z,52.03
2018-04-29T23:02:04.893Z,58.43
2018-04-29T23:04:30.929Z,63.30
2018-04-29T23:06:56.977Z,51.63
2018-04-29T23:09:23.061Z,54.37
2018-04-29T23:11:49.105Z,66.80
2018-04-29T23:14:15.182Z,50.83
2018-04-29T23:16:41.578Z,53.57
2018-04-29T23:19:07.577Z,52.97
2018-04-29T23:21:33.646Z,51.20
2018-04-29T23:23:59.666Z,54.00
2018-04-29T23:26:25.762Z,56.67
2018-04-29T23:28:51.822Z,65.43
2018-04-29T23:31:17.886Z,51.13
2018-04-29T23:33:43.919Z,49.53
2018-04-29T23:36:09.935Z,48.17
2018-04-29T23:38:35.990Z,50.37
2018-04-29T23:41:02.245Z,72.60
2018-04-29T23:43:28.309Z,61.80
2018-04-29T23:45:55.110Z,57.80
2018-04-29T23:48:21.137Z,47.83
2018-04-29T23:50:47.237Z,53.93
2018-04-29T23:53:13.242Z,47.13
2018-04-29T23:55:39.273Z,46.13
2018-04-29T23:58:05.321Z,59.90
